createdAt,value
2022-08-30T00:03:59.918Z,9.82
2022-08-30T00:09:03.279Z,10.23
2022-08-30T00:14:06.931Z,10.63
2022-08-30T00:19:11.537Z,10.10
2022-08-30T00:24:15.053Z,9.15
2022-08-30T00:29:18.582Z,10.27
2022-08-30T00:34:23.904Z,10.48
2022-08-30T00:39:27.939Z,10.32
2022-08-30T00:44:34.424Z,9.95
2022-08-30T00:49:42.372Z,11.57
2022-08-30T00:54:47.962Z,10.60
2022-08-30T00:59:52.901Z,10.65
2022-08-30T01:05:01.648Z,13.73
2022-08-30T01:10:09.383Z,10.48
2022-08-30T01:15:15.345Z,10.45
2022-08-30T01:20:29.670Z,10.18
2022-08-30T01:25:40.106Z,10.20
2022-08-30T01:30:43.440Z,10.45
2022-08-30T01:35:55.854Z,10.27
2022-08-30T01:41:01.338Z,11.13
2022-08-30T01:46:07.316Z,9.98
2022-08-30T01:51:13.666Z,10.68
2022-08-30T01:56:17.678Z,10.52
2022-08-30T02:01:26.963Z,10.60
2022-08-30T02:06:30.105Z,10.38
2022-08-30T02:11:33.990Z,10.25
2022-08-30T02:16:38.009Z,10.55
2022-08-30T02:21:41.712Z,11.93
2022-08-30T02:26:45.743Z,11.03
2022-08-30T02:31:50.078Z,9.73
2022-08-30T02:36:55.307Z,11.05
2022-08-30T02:41:58.455Z,9.48
2022-08-30T02:47:05.375Z,9.63
2022-08-30T02:52:08.772Z,9.52
2022-08-30T02:57:19.983Z,10.07
2022-08-30T03:02:32.068Z,11.00
2022-08-30T03:07:35.385Z,11.43
2022-08-30T03:12:38.990Z,10.50
2022-08-30T03:17:42.602Z,10.10
2022-08-30T03:22:47.730Z,10.10
2022-08-30T03:27:51.425Z,9.93
2022-08-30T03:32:58.020Z,9.55
2022-08-30T03:38:01.458Z,10.98
2022-08-30T03:43:06.613Z,11.05
2022-08-30T03:48:11.074Z,10.45
2022-08-30T03:53:15.175Z,10.52
2022-08-30T03:58:19.461Z,10.50
2022-08-30T04:03:22.840Z,9.95
2022-08-30T04:08:29.651Z,10.25
2022-08-30T04:13:35.940Z,10.57
2022-08-30T04:18:39.259Z,10.93
2022-08-30T04:23:46.399Z,10.10
2022-08-30T04:28:50.226Z,10.95
2022-08-30T04:33:53.617Z,11.38
2022-08-30T04:39:02.847Z,9.38
2022-08-30T04:44:19.202Z,9.40
2022-08-30T04:49:23.757Z,9.68
2022-08-30T04:54:28.897Z,10.77
2022-08-30T04:59:35.083Z,10.25
2022-08-30T05:09:48.667Z,10.57
2022-08-30T05:15:05.750Z,11.73
2022-08-30T05:20:11.671Z,12.02
2022-08-30T05:25:16.748Z,11.75
2022-08-30T05:30:21.933Z,11.05
2022-08-30T05:35:26.134Z,10.70
2022-08-30T05:40:32.865Z,10.68
2022-08-30T05:45:39.003Z,10.75
2022-08-30T05:50:42.746Z,10.82
2022-08-30T05:55:46.730Z,10.13
2022-08-30T06:00:53.376Z,11.27
2022-08-30T06:06:02.433Z,10.98
2022-08-30T06:11:09.268Z,10.48
2022-08-30T06:16:14.770Z,10.40
2022-08-30T06:21:35.803Z,10.48
2022-08-30T06:26:42.731Z,9.23
2022-08-30T06:31:46.655Z,9.13
2022-08-30T06:36:51.148Z,9.35
2022-08-30T06:41:56.765Z,8.10
2022-08-30T06:47:05.929Z,8.48
2022-08-30T06:52:09.465Z,7.53
2022-08-30T06:57:15.449Z,8.70
2022-08-30T07:02:19.956Z,7.82
2022-08-30T07:07:28.182Z,8.27
2022-08-30T07:12:33.293Z,7.65
2022-08-30T07:17:39.827Z,8.00
2022-08-30T07:22:42.919Z,7.40
2022-08-30T07:27:47.638Z,8.15
2022-08-30T07:32:57.112Z,8.20
2022-08-30T07:38:01.001Z,8.60
2022-08-30T07:43:04.702Z,7.60
2022-08-30T07:48:08.900Z,8.55
2022-08-30T07:53:12.514Z,8.18
2022-08-30T07:58:15.910Z,7.60
2022-08-30T08:03:19.530Z,7.60
2022-08-30T08:08:23.871Z,7.60
2022-08-30T08:13:28.588Z,7.25
2022-08-30T08:18:38.438Z,6.15
2022-08-30T08:23:42.230Z,6.57
2022-08-30T08:28:45.964Z,7.15
2022-08-30T08:33:49.477Z,6.78
2022-08-30T08:38:53.866Z,7.07
2022-08-30T08:44:00.204Z,6.43
2022-08-30T08:49:08.823Z,6.20
2022-08-30T08:54:32.672Z,6.65
2022-08-30T08:59:36.028Z,6.30
2022-08-30T09:04:42.735Z,6.55
2022-08-30T09:09:48.678Z,5.78
2022-08-30T09:14:55.789Z,6.10
2022-08-30T09:20:01.245Z,5.75
2022-08-30T09:25:10.201Z,6.18
2022-08-30T09:30:27.091Z,6.47
2022-08-30T09:35:44.343Z,6.15
2022-08-30T09:40:51.544Z,6.60
2022-08-30T09:46:01.271Z,6.05
2022-08-30T09:51:12.231Z,5.88
2022-08-30T09:56:26.261Z,4.80
2022-08-30T10:01:36.995Z,5.45
2022-08-30T10:07:05.430Z,5.03
2022-08-30T10:12:24.351Z,5.25
2022-08-30T10:18:16.655Z,5.75
2022-08-30T10:23:33.527Z,5.93
2022-08-30T10:28:50.542Z,5.57
2022-08-30T10:34:03.362Z,5.50
2022-08-30T10:39:15.127Z,5.32
2022-08-30T10:44:28.090Z,5.80
2022-08-30T10:49:40.416Z,6.05
2022-08-30T10:54:54.786Z,5.38
2022-08-30T11:00:06.052Z,5.30
2022-08-30T11:05:27.660Z,5.30
2022-08-30T11:10:56.306Z,5.25
2022-08-30T11:16:04.479Z,6.28
2022-08-30T11:21:35.715Z,5.38
2022-08-30T11:26:48.170Z,5.68
2022-08-30T11:31:51.456Z,7.40
2022-08-30T11:36:58.134Z,5.25
2022-08-30T11:42:55.246Z,6.20
2022-08-30T11:48:04.372Z,4.78
2022-08-30T11:53:38.085Z,5.22
2022-08-30T11:59:23.081Z,5.85
2022-08-30T12:04:38.871Z,4.93
2022-08-30T12:09:46.135Z,5.60
2022-08-30T12:14:50.544Z,5.07
2022-08-30T12:19:54.956Z,6.07
2022-08-30T12:25:02.554Z,5.10
2022-08-30T12:30:09.977Z,6.40
2022-08-30T12:35:25.470Z,5.95
2022-08-30T12:40:37.252Z,6.53
2022-08-30T12:45:50.835Z,6.13
2022-08-30T12:50:59.521Z,5.40
2022-08-30T12:56:06.486Z,5.97
2022-08-30T13:01:29.215Z,7.00
2022-08-30T13:06:56.167Z,6.28
2022-08-30T13:12:04.168Z,5.60
2022-08-30T13:17:11.222Z,3.83
2022-08-30T13:22:42.882Z,3.15
2022-08-30T13:27:46.591Z,3.75
2022-08-30T13:32:53.016Z,4.75
2022-08-30T13:37:59.929Z,3.63
2022-08-30T13:43:03.470Z,4.53
2022-08-30T13:48:07.243Z,4.45
2022-08-30T13:53:10.941Z,4.50
2022-08-30T13:58:14.495Z,4.50
2022-08-30T14:03:18.061Z,4.57
2022-08-30T14:19:16.207Z,5.18
2022-08-30T14:24:20.025Z,5.03
2022-08-30T14:29:28.463Z,5.25
2022-08-30T14:34:34.002Z,5.10
2022-08-30T14:39:37.969Z,5.22
2022-08-30T14:44:55.806Z,5.55
2022-08-30T14:50:00.145Z,5.82
2022-08-30T14:55:09.039Z,6.18
2022-08-30T15:00:14.000Z,5.43
2022-08-30T15:05:18.698Z,5.38
2022-08-30T15:10:23.863Z,5.22
2022-08-30T15:15:27.480Z,6.15
2022-08-30T15:20:30.810Z,5.47
2022-08-30T15:25:34.112Z,6.53
2022-08-30T15:30:38.159Z,7.18
2022-08-30T15:35:44.505Z,6.60
2022-08-30T15:40:50.505Z,6.38
2022-08-30T15:45:55.287Z,7.28
2022-08-30T15:50:59.506Z,6.90
2022-08-30T15:56:03.222Z,7.00
2022-08-30T16:01:08.014Z,7.93
2022-08-30T16:06:16.914Z,6.95
2022-08-30T16:11:30.527Z,6.72
2022-08-30T16:16:34.466Z,7.75
2022-08-30T16:21:39.832Z,8.30
2022-08-30T16:26:44.980Z,7.75
2022-08-30T16:31:49.082Z,7.93
2022-08-30T16:36:52.503Z,7.38
2022-08-30T16:41:57.083Z,7.82
2022-08-30T16:47:01.098Z,8.38
2022-08-30T16:52:04.843Z,8.20
2022-08-30T16:57:10.704Z,8.50
2022-08-30T17:02:15.990Z,8.68
2022-08-30T17:07:22.413Z,9.80
2022-08-30T17:12:28.371Z,10.18
2022-08-30T17:17:34.576Z,11.00
2022-08-30T17:22:38.054Z,12.10
2022-08-30T17:27:41.906Z,10.73
2022-08-30T17:32:45.649Z,14.60
2022-08-30T17:37:53.998Z,11.13
2022-08-30T17:42:58.516Z,10.85
2022-08-30T17:48:02.710Z,11.90
2022-08-30T17:53:06.157Z,11.93
2022-08-30T17:58:10.189Z,12.02
2022-08-30T18:03:14.054Z,11.82
2022-08-30T18:08:18.810Z,11.80
2022-08-30T18:13:25.305Z,12.48
2022-08-30T18:18:28.915Z,13.00
2022-08-30T18:23:32.971Z,13.60
2022-08-30T18:28:37.962Z,12.10
2022-08-30T18:33:42.566Z,13.15
2022-08-30T18:38:47.695Z,12.57
2022-08-30T18:44:05.828Z,13.65
2022-08-30T18:49:16.542Z,12.73
2022-08-30T18:54:20.636Z,12.93
2022-08-30T18:59:24.434Z,13.23
2022-08-30T19:04:42.732Z,13.32
2022-08-30T19:09:51.353Z,13.60
2022-08-30T19:14:57.622Z,14.00
2022-08-30T19:20:01.991Z,12.88
2022-08-30T19:25:08.174Z,13.63
2022-08-30T19:30:24.001Z,13.43
2022-08-30T19:35:30.650Z,12.93
2022-08-30T19:40:34.102Z,13.52
2022-08-30T19:45:40.137Z,13.52
2022-08-30T19:50:48.654Z,14.93
2022-08-30T19:55:52.801Z,14.60
2022-08-30T20:01:01.275Z,13.77
2022-08-30T20:06:15.335Z,13.45
2022-08-30T20:11:21.776Z,14.65
2022-08-30T20:16:33.073Z,16.15
2022-08-30T20:21:41.609Z,15.43
2022-08-30T20:26:47.547Z,15.50
2022-08-30T20:31:51.445Z,16.02
2022-08-30T20:36:57.962Z,14.38
2022-08-30T20:42:01.478Z,15.43
2022-08-30T20:47:05.038Z,14.38
2022-08-30T20:52:10.501Z,14.55
2022-08-30T20:57:23.842Z,13.18
2022-08-30T21:02:28.119Z,14.88
2022-08-30T21:07:32.495Z,16.80
2022-08-30T21:12:36.261Z,14.95
2022-08-30T21:17:40.263Z,14.40
2022-08-30T21:22:45.277Z,14.75
2022-08-30T21:27:48.945Z,15.70
2022-08-30T21:32:53.251Z,14.85
2022-08-30T21:37:56.882Z,15.35
2022-08-30T21:43:05.871Z,14.40
2022-08-30T21:48:10.460Z,17.00
2022-08-30T21:53:17.313Z,17.55
2022-08-30T21:58:20.754Z,15.68
2022-08-30T22:03:25.393Z,18.38
2022-08-30T22:08:30.430Z,15.65
2022-08-30T22:13:35.890Z,16.10
2022-08-30T22:18:40.036Z,16.08
2022-08-30T22:23:43.561Z,16.08
2022-08-30T22:28:47.444Z,15.32
2022-08-30T22:33:52.980Z,17.10
2022-08-30T22:39:00.044Z,17.55
2022-08-30T22:44:08.707Z,16.88
2022-08-30T22:49:13.398Z,17.42
2022-08-30T22:54:17.061Z,16.75
2022-08-30T22:59:20.448Z,16.98
2022-08-30T23:04:31.116Z,18.58
2022-08-30T23:09:34.349Z,18.08
2022-08-30T23:14:37.677Z,19.67
2022-08-30T23:19:41.105Z,19.17
2022-08-30T23:24:46.313Z,19.42
2022-08-30T23:29:55.661Z,19.02
2022-08-30T23:34:59.646Z,19.33
2022-08-30T23:40:04.800Z,20.45
2022-08-30T23:45:08.730Z,19.90
2022-08-30T23:50:12.094Z,20.00
2022-08-30T23:55:15.432Z,19.83
